createdAt,value
2023-04-11T00:01:43.349Z,97781.34
2023-04-11T00:04:46.429Z,97764.97
2023-04-11T00:07:49.216Z,97747.16
2023-04-11T00:10:53.457Z,97726.97
2023-04-11T00:13:57.566Z,97725.88
2023-04-11T00:17:01.147Z,97716.47
2023-04-11T00:20:08.181Z,97713.75
2023-04-11T00:23:11.080Z,97717.13
2023-04-11T00:26:15.236Z,97712.50
2023-04-11T00:29:17.934Z,97711.53
2023-04-11T00:32:20.533Z,97711.88
2023-04-11T00:35:23.366Z,97700.09
2023-04-11T00:38:26.313Z,97712.97
2023-04-11T00:41:30.621Z,97711.38
2023-04-11T00:44:33.626Z,97704.72
2023-04-11T00:47:36.963Z,97698.97
2023-04-11T00:50:42.463Z,97700.88
2023-04-11T00:53:45.899Z,97708.22
2023-04-11T00:56:50.514Z,97702.94
2023-04-11T00:59:53.482Z,97707.41
2023-04-11T01:02:56.372Z,97701.66
2023-04-11T01:05:59.237Z,97702.16
2023-04-11T01:09:04.947Z,97705.97
2023-04-11T01:12:09.425Z,97706.56
2023-04-11T01:15:12.431Z,97710.19
2023-04-11T01:18:15.604Z,97711.78
2023-04-11T01:21:20.479Z,97714.97
2023-04-11T01:24:25.018Z,97707.19
2023-04-11T01:27:27.822Z,97720.03
2023-04-11T01:30:30.835Z,97732.47
2023-04-11T01:33:33.863Z,97723.88
2023-04-11T01:36:37.349Z,97726.66
2023-04-11T01:39:41.463Z,97722.13
2023-04-11T01:42:45.744Z,97714.28
2023-04-11T01:45:48.709Z,97710.47
2023-04-11T01:48:51.753Z,97731.69
2023-04-11T01:51:54.447Z,97746.78
2023-04-11T01:54:58.554Z,97757.38
2023-04-11T01:58:01.230Z,97771.69
2023-04-11T02:01:04.088Z,97768.34
2023-04-11T02:04:06.852Z,97791.84
2023-04-11T02:07:09.669Z,97804.16
2023-04-11T02:10:13.828Z,97824.91
2023-04-11T02:13:16.572Z,97813.34
2023-04-11T02:16:20.736Z,97804.59
2023-04-11T02:19:26.049Z,97828.41
2023-04-11T02:22:29.276Z,97837.81
2023-04-11T02:25:33.356Z,97837.41
2023-04-11T02:28:36.660Z,97845.56
2023-04-11T02:31:39.689Z,97834.91
2023-04-11T02:34:42.720Z,97823.03
2023-04-11T02:37:45.601Z,97810.75
2023-04-11T02:40:49.910Z,97807.84
2023-04-11T02:43:52.691Z,97818.63
2023-04-11T02:46:55.540Z,97821.88
2023-04-11T02:49:58.467Z,97822.31
2023-04-11T02:53:01.480Z,97819.50
2023-04-11T02:56:06.796Z,97817.84
2023-04-11T02:59:09.677Z,97824.16
2023-04-11T03:02:12.618Z,97821.09
2023-04-11T03:05:16.714Z,97820.69
2023-04-11T03:08:19.604Z,97826.34
2023-04-11T03:11:23.789Z,97821.03
2023-04-11T03:14:26.584Z,97822.22
2023-04-11T03:17:29.549Z,97829.25
2023-04-11T03:20:32.441Z,97832.75
2023-04-11T03:23:35.222Z,97842.25
2023-04-11T03:26:39.432Z,97844.78
2023-04-11T03:29:42.127Z,97829.91
2023-04-11T03:32:44.899Z,97819.28
2023-04-11T03:35:47.857Z,97813.97
2023-04-11T03:38:50.705Z,97801.69
2023-04-11T03:41:55.020Z,97808.00
2023-04-11T03:44:57.743Z,97812.34
2023-04-11T03:48:00.544Z,97807.25
2023-04-11T03:51:03.520Z,97812.97
2023-04-11T03:54:06.371Z,97814.06
2023-04-11T03:57:11.506Z,97822.13
2023-04-11T04:00:14.755Z,97842.72
2023-04-11T04:03:17.526Z,97848.09
2023-04-11T04:06:21.470Z,97844.72
2023-04-11T04:09:24.405Z,97850.88
2023-04-11T04:12:28.686Z,97836.31
2023-04-11T04:15:31.487Z,97841.97
2023-04-11T04:18:34.118Z,97847.94
2023-04-11T04:21:37.956Z,97864.81
2023-04-11T04:24:41.916Z,97858.66
2023-04-11T04:27:46.735Z,97854.03
2023-04-11T04:30:54.029Z,97859.41
2023-04-11T04:33:58.652Z,97871.22
2023-04-11T04:37:02.056Z,97883.16
2023-04-11T04:40:08.215Z,97882.88
2023-04-11T04:43:18.044Z,97894.13
2023-04-11T04:46:21.159Z,97907.09
2023-04-11T04:49:24.258Z,97902.00
2023-04-11T04:52:28.300Z,97902.78
2023-04-11T04:55:30.974Z,97912.78
2023-04-11T04:58:35.093Z,97932.69
2023-04-11T05:01:39.997Z,97922.53
2023-04-11T05:04:44.750Z,97942.00
2023-04-11T05:07:48.373Z,97959.53
2023-04-11T05:10:51.120Z,97971.03
2023-04-11T05:13:55.855Z,97973.25
2023-04-11T05:16:58.955Z,97981.63
2023-04-11T05:20:01.792Z,97986.06
2023-04-11T05:23:04.637Z,97977.75
2023-04-11T05:26:07.822Z,97969.97
2023-04-11T05:29:12.329Z,97963.81
2023-04-11T05:32:15.027Z,97964.34
2023-04-11T05:35:17.994Z,97960.03
2023-04-11T05:38:20.925Z,97962.69
2023-04-11T05:41:23.603Z,97971.50
2023-04-11T05:44:27.588Z,97957.78
2023-04-11T05:47:31.179Z,97968.28
2023-04-11T05:50:34.233Z,97957.31
2023-04-11T05:53:36.936Z,97960.53
2023-04-11T05:56:42.291Z,97965.94
2023-04-11T05:59:49.878Z,97973.41
2023-04-11T06:02:54.901Z,97974.41
2023-04-11T06:05:57.977Z,97976.03
2023-04-11T06:09:01.170Z,97982.50
2023-04-11T06:12:04.079Z,97977.63
2023-04-11T06:15:11.848Z,97971.19
2023-04-11T06:18:14.744Z,97993.19
2023-04-11T06:21:17.450Z,97984.34
2023-04-11T06:24:36.087Z,97988.88
2023-04-11T06:27:38.949Z,97997.97
2023-04-11T06:30:43.181Z,97992.84
2023-04-11T06:33:46.297Z,97995.22
2023-04-11T06:36:50.023Z,98013.69
2023-04-11T06:39:52.689Z,98020.28
2023-04-11T06:42:57.920Z,98026.66
2023-04-11T06:46:02.054Z,98029.69
2023-04-11T06:49:07.216Z,98033.41
2023-04-11T06:52:09.896Z,98045.72
2023-04-11T06:55:15.392Z,98028.84
2023-04-11T06:58:18.254Z,98040.38
2023-04-11T07:01:25.426Z,98044.56
2023-04-11T07:04:28.522Z,98041.59
2023-04-11T07:07:32.154Z,98051.78
2023-04-11T07:10:34.803Z,98048.53
2023-04-11T07:13:37.616Z,98048.25
2023-04-11T07:16:41.798Z,98074.88
2023-04-11T07:19:44.718Z,98070.88
2023-04-11T07:22:47.609Z,98075.13
2023-04-11T07:25:50.508Z,98084.97
2023-04-11T07:28:53.176Z,98085.47
2023-04-11T07:31:57.647Z,98093.97
2023-04-11T07:35:00.769Z,98097.22
2023-04-11T07:38:03.500Z,98097.13
2023-04-11T07:41:06.810Z,98101.59
2023-04-11T07:44:09.682Z,98093.22
2023-04-11T07:47:13.990Z,98089.81
2023-04-11T07:50:16.829Z,98099.88
2023-04-11T07:53:19.664Z,98096.66
2023-04-11T07:56:22.778Z,98109.75
2023-04-11T07:59:25.860Z,98088.31
2023-04-11T08:02:30.052Z,98084.59
2023-04-11T08:05:33.788Z,98091.91
2023-04-11T08:08:36.695Z,98095.91
2023-04-11T08:11:40.802Z,98096.13
2023-04-11T08:14:43.512Z,98092.06
2023-04-11T08:17:49.809Z,98096.88
2023-04-11T08:20:52.922Z,98094.03
2023-04-11T08:23:56.003Z,98093.19
2023-04-11T08:26:59.112Z,98105.78
2023-04-11T08:30:01.939Z,98113.28
2023-04-11T08:33:07.114Z,98108.19
2023-04-11T08:36:11.359Z,98115.31
2023-04-11T08:39:14.540Z,98120.88
2023-04-11T08:42:24.737Z,98125.16
2023-04-11T08:45:27.952Z,98122.66
2023-04-11T08:48:32.482Z,98113.53
2023-04-11T08:51:35.225Z,98113.13
2023-04-11T08:54:38.027Z,98116.84
2023-04-11T08:57:40.700Z,98111.28
2023-04-11T09:00:44.015Z,98124.31
2023-04-11T09:03:52.499Z,98115.34
2023-04-11T09:07:00.477Z,98119.78
2023-04-11T09:10:19.852Z,98108.13
2023-04-11T09:13:24.539Z,98110.00
2023-04-11T09:16:27.215Z,98119.66
2023-04-11T09:19:34.554Z,98114.22
2023-04-11T09:22:37.299Z,98111.44
2023-04-11T09:25:45.290Z,98110.56
2023-04-11T09:28:53.470Z,98107.97
2023-04-11T09:31:57.093Z,98107.81
2023-04-11T09:35:13.193Z,98119.25
2023-04-11T09:38:27.993Z,98111.91
2023-04-11T09:41:32.331Z,98125.44
2023-04-11T09:44:39.366Z,98116.22
2023-04-11T09:47:44.619Z,98112.38
2023-04-11T09:50:50.939Z,98110.81
2023-04-11T09:53:54.627Z,98108.34
2023-04-11T09:56:59.437Z,98097.56
2023-04-11T10:00:09.791Z,98101.09
2023-04-11T10:03:12.475Z,98107.97
2023-04-11T10:06:31.380Z,98104.78
2023-04-11T10:09:34.533Z,98104.97
2023-04-11T10:12:37.279Z,98118.47
2023-04-11T10:16:08.490Z,98127.63
2023-04-11T10:19:24.868Z,98130.28
2023-04-11T10:23:02.174Z,98127.81
2023-04-11T10:26:10.739Z,98129.94
2023-04-11T10:29:49.240Z,98136.22
2023-04-11T10:33:11.524Z,98139.38
2023-04-11T10:36:14.225Z,98127.41
2023-04-11T10:39:18.228Z,98130.53
2023-04-11T10:42:27.589Z,98126.41
2023-04-11T10:45:32.381Z,98126.03
2023-04-11T10:48:59.032Z,98141.03
2023-04-11T10:52:17.965Z,98132.69
2023-04-11T10:55:22.976Z,98125.00
2023-04-11T10:58:35.824Z,98132.59
2023-04-11T11:04:45.610Z,98125.69
2023-04-11T11:07:53.085Z,98131.97
2023-04-11T11:11:01.542Z,98131.91
2023-04-11T11:14:04.253Z,98123.81
2023-04-11T11:17:08.722Z,98132.19
2023-04-11T11:20:17.059Z,98125.75
2023-04-11T11:23:19.797Z,98123.31
2023-04-11T11:26:24.788Z,98126.41
2023-04-11T11:29:32.085Z,98129.50
2023-04-11T11:32:35.024Z,98126.03
2023-04-11T11:35:37.793Z,98116.59
2023-04-11T11:38:40.891Z,98112.72
2023-04-11T11:41:45.680Z,98109.88
2023-04-11T11:44:48.437Z,98110.69
2023-04-11T11:47:51.856Z,98102.31
2023-04-11T11:50:58.374Z,98126.84
2023-04-11T11:54:05.650Z,98114.16
2023-04-11T11:57:09.659Z,98124.50
2023-04-11T12:00:13.808Z,98119.19
2023-04-11T12:03:21.093Z,98130.75
2023-04-11T12:06:24.381Z,98128.53
2023-04-11T12:09:32.020Z,98126.25
2023-04-11T12:12:38.404Z,98129.03
2023-04-11T12:15:42.809Z,98126.25
2023-04-11T12:18:45.919Z,98124.97
2023-04-11T12:21:48.677Z,98127.25
2023-04-11T12:24:53.557Z,98131.25
2023-04-11T12:27:58.275Z,98130.06
2023-04-11T12:31:01.181Z,98123.78
2023-04-11T12:34:04.084Z,98125.69
2023-04-11T12:37:06.896Z,98116.59
2023-04-11T12:40:11.876Z,98118.41
2023-04-11T12:43:16.231Z,98118.69
2023-04-11T12:46:19.429Z,98118.13
2023-04-11T12:49:22.306Z,98126.09
2023-04-11T12:52:25.388Z,98116.59
2023-04-11T12:55:28.785Z,98135.28
2023-04-11T12:58:33.109Z,98132.41
2023-04-11T13:01:36.849Z,98136.50
2023-04-11T13:04:40.092Z,98142.59
2023-04-11T13:07:46.219Z,98125.91
2023-04-11T13:10:49.350Z,98142.59
2023-04-11T13:13:53.899Z,98113.41
2023-04-11T13:16:56.894Z,98121.31
2023-04-11T13:19:59.722Z,98121.41
2023-04-11T13:23:02.610Z,98113.03
2023-04-11T13:26:07.106Z,98112.91
2023-04-11T13:29:14.136Z,98118.19
2023-04-11T13:32:17.116Z,98118.19
2023-04-11T13:35:19.908Z,98109.22
2023-04-11T13:38:22.642Z,98111.28
2023-04-11T13:41:26.065Z,98100.66
2023-04-11T13:44:30.171Z,98103.66
2023-04-11T13:47:33.806Z,98106.47
2023-04-11T13:50:39.431Z,98098.91
2023-04-11T13:53:42.199Z,98100.13
2023-04-11T13:56:45.373Z,98112.53
2023-04-11T13:59:49.564Z,98101.66
2023-04-11T14:02:52.830Z,98105.34
2023-04-11T14:05:55.753Z,98108.75
2023-04-11T14:08:59.009Z,98113.72
2023-04-11T14:12:02.623Z,98103.31
2023-04-11T14:15:09.035Z,98092.66
2023-04-11T14:18:11.777Z,98094.47
2023-04-11T14:21:15.009Z,98099.41
2023-04-11T14:24:19.522Z,98105.44
2023-04-11T14:27:22.344Z,98105.56
2023-04-11T14:30:26.705Z,98106.88
2023-04-11T14:33:29.649Z,98104.47
2023-04-11T14:36:32.473Z,98096.09
2023-04-11T14:39:35.348Z,98097.94
2023-04-11T14:42:38.232Z,98108.09
2023-04-11T14:45:42.605Z,98108.34
2023-04-11T14:48:45.475Z,98105.78
2023-04-11T14:51:48.209Z,98096.75
2023-04-11T14:54:51.036Z,98092.88
2023-04-11T14:57:55.642Z,98099.22
2023-04-11T15:00:59.940Z,98088.59
2023-04-11T15:04:03.031Z,98101.97
2023-04-11T15:07:06.041Z,98092.72
2023-04-11T15:10:10.139Z,98094.47
2023-04-11T15:13:13.137Z,98085.31
2023-04-11T15:16:18.773Z,98099.84
2023-04-11T15:19:23.250Z,98075.13
2023-04-11T15:22:26.454Z,98082.94
2023-04-11T15:25:29.503Z,98075.88
2023-04-11T15:28:34.306Z,98082.44
2023-04-11T15:31:39.008Z,98078.50
2023-04-11T15:34:42.798Z,98056.38
2023-04-11T15:37:45.687Z,98079.66
2023-04-11T15:40:50.404Z,98069.69
2023-04-11T15:43:53.419Z,98073.88
2023-04-11T15:46:57.774Z,98069.06
2023-04-11T15:50:02.838Z,98067.34
2023-04-11T15:53:05.681Z,98057.09
2023-04-11T15:56:09.487Z,98048.94
2023-04-11T15:59:12.933Z,98057.50
2023-04-11T16:02:17.230Z,98053.31
2023-04-11T16:05:21.855Z,98043.34
2023-04-11T16:08:24.784Z,98051.78
2023-04-11T16:11:29.848Z,98056.44
2023-04-11T16:14:32.630Z,98055.31
2023-04-11T16:17:36.859Z,98044.16
2023-04-11T16:20:39.971Z,98049.41
2023-04-11T16:23:42.918Z,98052.78
2023-04-11T16:26:45.932Z,98041.97
2023-04-11T16:29:48.706Z,98043.47
2023-04-11T16:32:53.390Z,98048.28
2023-04-11T16:35:56.255Z,98038.34
2023-04-11T16:38:59.215Z,98032.97
2023-04-11T16:42:02.332Z,98044.47
2023-04-11T16:45:06.053Z,98046.16
2023-04-11T16:48:10.491Z,98040.88
2023-04-11T16:51:14.621Z,98036.69
2023-04-11T16:54:17.617Z,98028.94
2023-04-11T16:57:20.435Z,98028.94
2023-04-11T17:00:23.980Z,98023.38
2023-04-11T17:03:28.353Z,98033.84
2023-04-11T17:06:32.118Z,98020.16
2023-04-11T17:09:34.945Z,98019.78
2023-04-11T17:12:37.848Z,98006.38
2023-04-11T17:15:40.942Z,98003.91
2023-04-11T17:18:45.088Z,98004.47
2023-04-11T17:21:47.810Z,98006.66
2023-04-11T17:24:50.634Z,97998.28
2023-04-11T17:27:53.589Z,97999.38
2023-04-11T17:30:56.523Z,98009.53
2023-04-11T17:34:00.740Z,98009.44
2023-04-11T17:37:03.540Z,98017.41
2023-04-11T17:40:12.343Z,98013.94
2023-04-11T17:43:15.444Z,98012.41
2023-04-11T17:46:20.490Z,98008.97
2023-04-11T17:49:27.034Z,98003.69
2023-04-11T17:52:29.841Z,98008.66
2023-04-11T17:55:33.199Z,98012.09
2023-04-11T17:58:36.015Z,98016.41
2023-04-11T18:01:38.974Z,98011.38
2023-04-11T18:04:43.642Z,98016.41
2023-04-11T18:07:47.303Z,98013.06
2023-04-11T18:10:50.195Z,98008.84
2023-04-11T18:13:52.847Z,98004.59
2023-04-11T18:16:55.542Z,98002.31
2023-04-11T18:20:00.461Z,98011.84
2023-04-11T18:23:03.092Z,98021.91
2023-04-11T18:26:06.278Z,98024.22
2023-04-11T18:29:08.848Z,98015.19
2023-04-11T18:32:11.649Z,98015.91
2023-04-11T18:35:16.301Z,98018.34
2023-04-11T18:38:18.888Z,98024.63
2023-04-11T18:41:21.699Z,98029.03
2023-04-11T18:44:24.941Z,98040.41
2023-04-11T18:47:27.756Z,98041.63
2023-04-11T18:50:31.790Z,98041.44
2023-04-11T18:53:36.472Z,98026.16
2023-04-11T18:56:40.566Z,98040.84
2023-04-11T18:59:44.761Z,98038.75
2023-04-11T19:02:50.833Z,98031.81
2023-04-11T19:05:55.826Z,98036.38
2023-04-11T19:08:58.532Z,98028.91
2023-04-11T19:12:01.130Z,98037.84
2023-04-11T19:15:06.632Z,98026.06
2023-04-11T19:18:10.303Z,98026.13
2023-04-11T19:21:14.340Z,98019.66
2023-04-11T19:24:17.113Z,98020.53
2023-04-11T19:27:21.711Z,98014.13
2023-04-11T19:30:24.727Z,98010.94
2023-04-11T19:33:27.614Z,98013.88
2023-04-11T19:36:31.723Z,98010.66
2023-04-11T19:39:38.133Z,98005.16
2023-04-11T19:42:41.586Z,98007.03
2023-04-11T19:45:44.832Z,97999.00
2023-04-11T19:48:47.472Z,97993.34
2023-04-11T19:51:51.416Z,97994.47
2023-04-11T19:54:54.289Z,97992.59
2023-04-11T19:57:56.991Z,97977.03
2023-04-11T20:00:59.908Z,97974.41
2023-04-11T20:04:02.921Z,97973.66
2023-04-11T20:07:06.901Z,97974.75
2023-04-11T20:10:10.544Z,97972.59
2023-04-11T20:13:13.174Z,97968.28
2023-04-11T20:16:17.064Z,97959.41
2023-04-11T20:19:21.288Z,97958.94
2023-04-11T20:22:25.639Z,97964.84
2023-04-11T20:25:28.257Z,97947.69
2023-04-11T20:28:31.507Z,97948.28
2023-04-11T20:31:34.233Z,97947.16
2023-04-11T20:34:36.859Z,97944.44
2023-04-11T20:37:43.314Z,97951.47
2023-04-11T20:40:45.978Z,97945.25
2023-04-11T20:43:48.635Z,97937.22
2023-04-11T20:46:51.368Z,97934.31
2023-04-11T20:49:55.993Z,97935.63
2023-04-11T20:53:01.840Z,97922.19
2023-04-11T20:56:05.505Z,97919.50
2023-04-11T20:59:09.820Z,97908.78
2023-04-11T21:02:12.612Z,97912.81
2023-04-11T21:05:17.872Z,97913.88
2023-04-11T21:08:23.510Z,97904.81
2023-04-11T21:11:26.291Z,97910.13
2023-04-11T21:14:32.785Z,97909.34
2023-04-11T21:17:37.384Z,97904.28
2023-04-11T21:20:40.493Z,97901.31
2023-04-11T21:23:44.706Z,97890.88
2023-04-11T21:26:48.098Z,97881.28
2023-04-11T21:29:50.731Z,97880.47
2023-04-11T21:32:53.521Z,97879.38
2023-04-11T21:35:56.522Z,97882.84
2023-04-11T21:39:00.520Z,97875.78
2023-04-11T21:42:03.163Z,97868.88
2023-04-11T21:45:08.264Z,97869.97
2023-04-11T21:48:11.276Z,97865.72
2023-04-11T21:51:16.970Z,97861.47
2023-04-11T21:54:20.905Z,97845.66
2023-04-11T21:57:23.463Z,97837.34
2023-04-11T22:00:26.459Z,97827.44
2023-04-11T22:03:29.857Z,97816.13
2023-04-11T22:14:32.945Z,97808.75
2023-04-11T22:17:37.149Z,97810.63
2023-04-11T22:20:43.637Z,97804.75
2023-04-11T22:23:46.942Z,97792.66
2023-04-11T22:26:53.801Z,97789.13
2023-04-11T22:29:57.078Z,97772.22
2023-04-11T22:33:02.005Z,97780.84
2023-04-11T22:36:05.228Z,97774.59
2023-04-11T22:39:09.414Z,97763.88
2023-04-11T22:42:13.427Z,97761.41
2023-04-11T22:45:16.075Z,97742.66
2023-04-11T22:48:18.694Z,97739.69
2023-04-11T22:51:21.887Z,97737.00
2023-04-11T22:54:24.498Z,97734.78
2023-04-11T22:57:28.500Z,97732.97
2023-04-11T23:00:38.026Z,97735.59
2023-04-11T23:03:40.926Z,97741.75
2023-04-11T23:06:43.566Z,97730.44
2023-04-11T23:09:47.239Z,97730.44
2023-04-11T23:12:51.623Z,97725.16
2023-04-11T23:15:54.798Z,97734.31
2023-04-11T23:18:57.502Z,97726.00
2023-04-11T23:22:00.251Z,97720.88
2023-04-11T23:25:02.934Z,97717.56
2023-04-11T23:28:07.409Z,97709.25
2023-04-11T23:31:10.344Z,97710.09
2023-04-11T23:34:13.321Z,97708.25
2023-04-11T23:37:16.508Z,97708.50
2023-04-11T23:40:19.202Z,97699.94
2023-04-11T23:43:23.132Z,97698.34
2023-04-11T23:46:26.140Z,97699.59
2023-04-11T23:49:28.760Z,97692.81
2023-04-11T23:52:31.968Z,97696.72
2023-04-11T23:55:34.812Z,97694.69
2023-04-11T23:58:38.858Z,97688.47
